createdAt,value
2022-08-02T00:00:34.437Z,19.48
2022-08-02T00:03:01.379Z,19.47
2022-08-02T00:05:28.258Z,19.51
2022-08-02T00:07:55.077Z,19.52
2022-08-02T00:10:21.922Z,19.21
2022-08-02T00:12:48.742Z,19.27
2022-08-02T00:15:16.015Z,19.17
2022-08-02T00:17:44.279Z,19.16
2022-08-02T00:20:12.589Z,19.13
2022-08-02T00:22:39.673Z,19.10
2022-08-02T00:25:07.225Z,19.14
2022-08-02T00:27:34.087Z,19.24
2022-08-02T00:30:00.915Z,19.15
2022-08-02T00:32:27.751Z,19.22
2022-08-02T00:34:54.589Z,19.14
2022-08-02T00:37:21.416Z,19.26
2022-08-02T00:39:48.253Z,19.20
2022-08-02T00:42:16.010Z,19.18
2022-08-02T00:44:43.269Z,19.26
2022-08-02T00:47:11.246Z,19.14
2022-08-02T00:49:45.842Z,19.26
2022-08-02T00:52:12.922Z,19.32
2022-08-02T00:54:39.924Z,19.24
2022-08-02T00:57:06.878Z,19.27
2022-08-02T00:59:33.718Z,19.12
2022-08-02T01:02:00.605Z,19.24
2022-08-02T01:04:31.415Z,19.18
2022-08-02T01:07:00.703Z,19.11
2022-08-02T01:09:28.123Z,19.16
2022-08-02T01:11:54.972Z,19.11
2022-08-02T01:14:24.605Z,19.06
2022-08-02T01:17:07.548Z,19.00
2022-08-02T01:20:08.304Z,19.08
2022-08-02T01:23:03.133Z,19.04
2022-08-02T01:25:57.988Z,19.08
2022-08-02T01:28:48.760Z,18.98
2022-08-02T01:31:56.169Z,19.06
2022-08-02T01:34:34.204Z,18.92
2022-08-02T01:37:28.485Z,18.97
2022-08-02T01:40:03.730Z,19.03
2022-08-02T01:42:32.410Z,19.02
2022-08-02T01:45:01.628Z,18.98
2022-08-02T01:47:34.179Z,19.04
2022-08-02T01:50:03.147Z,19.01
2022-08-02T01:52:33.922Z,19.03
2022-08-02T01:55:18.660Z,19.00
2022-08-02T01:57:50.955Z,18.94
2022-08-02T02:00:20.125Z,18.98
2022-08-02T02:02:49.652Z,18.92
2022-08-02T02:05:26.476Z,18.90
2022-08-02T02:07:58.021Z,18.93
2022-08-02T02:10:32.120Z,18.92
2022-08-02T02:13:04.089Z,18.96
2022-08-02T02:15:31.843Z,18.94
2022-08-02T02:18:12.840Z,18.99
2022-08-02T02:20:42.634Z,19.00
2022-08-02T02:23:10.955Z,18.99
2022-08-02T02:25:46.849Z,18.95
2022-08-02T02:28:30.860Z,19.01
2022-08-02T02:31:21.521Z,18.96
2022-08-02T02:34:02.119Z,18.88
2022-08-02T02:36:30.899Z,18.80
2022-08-02T02:39:02.098Z,18.76
2022-08-02T02:41:30.270Z,18.79
2022-08-02T02:44:01.921Z,18.72
2022-08-02T02:46:31.306Z,18.78
2022-08-02T02:48:59.000Z,18.74
2022-08-02T02:51:26.303Z,18.74
2022-08-02T02:54:29.836Z,18.80
2022-08-02T02:56:42.960Z,18.79
2022-08-02T02:59:10.783Z,18.86
2022-08-02T03:01:57.322Z,18.83
2022-08-02T03:04:25.606Z,18.87
2022-08-02T03:06:52.486Z,18.83
2022-08-02T03:09:19.336Z,18.91
2022-08-02T03:11:47.456Z,18.86
2022-08-02T03:14:14.582Z,18.81
2022-08-02T03:16:52.096Z,18.76
2022-08-02T03:19:21.745Z,18.67
2022-08-02T03:21:57.395Z,18.66
2022-08-02T03:24:35.046Z,18.71
2022-08-02T03:27:01.863Z,18.67
2022-08-02T03:29:31.476Z,18.81
2022-08-02T03:32:01.292Z,18.72
2022-08-02T03:34:28.156Z,18.78
2022-08-02T03:36:56.851Z,18.79
2022-08-02T03:39:25.173Z,18.81
2022-08-02T03:41:53.009Z,18.78
2022-08-02T03:44:20.109Z,18.85
2022-08-02T03:46:47.284Z,18.87
2022-08-02T03:49:16.533Z,18.83
2022-08-02T03:51:45.353Z,18.82
2022-08-02T03:54:12.451Z,18.80
2022-08-02T03:56:39.872Z,18.80
2022-08-02T03:59:12.543Z,18.82
2022-08-02T04:01:39.916Z,18.82
2022-08-02T04:04:07.705Z,18.84
2022-08-02T04:06:34.581Z,18.74
2022-08-02T04:09:01.599Z,18.77
2022-08-02T04:11:31.064Z,18.74
2022-08-02T04:14:00.966Z,18.78
2022-08-02T04:16:52.851Z,18.78
2022-08-02T04:19:26.823Z,18.78
2022-08-02T04:21:54.858Z,18.80
2022-08-02T04:24:32.087Z,18.73
2022-08-02T04:27:06.593Z,18.73
2022-08-02T04:29:47.956Z,18.74
2022-08-02T04:32:16.978Z,18.67
2022-08-02T04:35:17.620Z,18.55
2022-08-02T04:37:35.552Z,18.74
2022-08-02T04:40:02.428Z,18.71
2022-08-02T04:42:29.235Z,18.63
2022-08-02T04:44:56.101Z,18.73
2022-08-02T04:48:03.286Z,18.68
2022-08-02T04:50:10.389Z,18.79
2022-08-02T04:52:37.238Z,18.73
2022-08-02T04:55:04.515Z,18.80
2022-08-02T04:57:53.106Z,18.72
2022-08-02T05:00:20.522Z,18.87
2022-08-02T05:02:47.973Z,18.78
2022-08-02T05:05:15.537Z,18.85
2022-08-02T05:07:42.623Z,18.78
2022-08-02T05:10:09.638Z,18.83
2022-08-02T05:12:38.850Z,18.91
2022-08-02T05:15:06.575Z,18.87
2022-08-02T05:17:36.553Z,18.96
2022-08-02T05:20:05.429Z,18.85
2022-08-02T05:22:32.445Z,18.98
2022-08-02T05:24:59.280Z,18.97
2022-08-02T05:27:26.124Z,18.92
2022-08-02T05:29:56.979Z,19.11
2022-08-02T05:32:25.206Z,18.97
2022-08-02T05:34:53.522Z,19.06
2022-08-02T05:37:20.338Z,19.16
2022-08-02T05:39:55.054Z,19.17
2022-08-02T05:42:23.437Z,19.14
2022-08-02T05:44:50.294Z,19.13
2022-08-02T05:47:17.140Z,19.10
2022-08-02T05:49:43.983Z,19.23
2022-08-02T05:52:17.381Z,19.21
2022-08-02T05:55:06.238Z,19.31
2022-08-02T05:57:48.640Z,19.26
2022-08-02T06:00:16.357Z,19.31
2022-08-02T06:02:44.628Z,19.34
2022-08-02T06:05:18.875Z,19.30
2022-08-02T06:07:48.638Z,19.37
2022-08-02T06:10:19.008Z,19.22
2022-08-02T06:13:16.750Z,19.42
2022-08-02T06:15:53.199Z,19.44
2022-08-02T06:18:27.934Z,19.41
2022-08-02T06:22:29.668Z,19.49
2022-08-02T06:23:57.683Z,19.44
2022-08-02T06:26:28.324Z,19.38
2022-08-02T06:28:57.914Z,19.51
2022-08-02T06:31:25.173Z,19.54
2022-08-02T06:33:53.220Z,19.56
2022-08-02T06:36:40.449Z,19.56
2022-08-02T06:39:13.157Z,19.44
2022-08-02T06:41:42.433Z,19.60
2022-08-02T06:44:43.022Z,19.60
2022-08-02T06:47:11.134Z,19.60
2022-08-02T06:49:51.804Z,19.61
2022-08-02T06:52:31.234Z,19.56
2022-08-02T06:55:00.129Z,19.67
2022-08-02T06:57:29.014Z,19.64
2022-08-02T06:59:55.948Z,19.71
2022-08-02T07:02:22.915Z,19.73
2022-08-02T07:04:49.887Z,19.83
2022-08-02T07:07:16.832Z,19.84
2022-08-02T07:09:56.829Z,19.74
2022-08-02T07:12:30.488Z,19.87
2022-08-02T07:14:59.341Z,19.88
2022-08-02T07:17:26.232Z,19.93
2022-08-02T07:19:53.241Z,19.94
2022-08-02T07:22:23.137Z,19.93
2022-08-02T07:24:50.912Z,19.94
2022-08-02T07:27:17.768Z,20.07
2022-08-02T07:29:45.999Z,20.04
2022-08-02T07:32:17.833Z,19.98
2022-08-02T07:34:51.147Z,20.14
2022-08-02T07:37:53.997Z,20.20
2022-08-02T07:40:15.314Z,20.24
2022-08-02T07:42:49.792Z,20.33
2022-08-02T07:45:16.847Z,20.29
2022-08-02T07:47:44.787Z,20.43
2022-08-02T07:50:14.232Z,20.49
2022-08-02T07:52:42.458Z,20.53
2022-08-02T07:55:11.077Z,20.54
2022-08-02T07:57:45.398Z,20.53
2022-08-02T08:00:15.937Z,20.55
2022-08-02T08:02:43.060Z,20.72
2022-08-02T08:05:10.123Z,20.72
2022-08-02T08:07:37.015Z,20.70
2022-08-02T08:10:06.292Z,20.87
2022-08-02T08:12:33.161Z,20.93
2022-08-02T08:15:00.027Z,21.14
2022-08-02T08:17:26.937Z,21.13
2022-08-02T08:19:53.900Z,21.09
2022-08-02T08:22:21.600Z,21.04
2022-08-02T08:24:48.892Z,20.88
2022-08-02T08:27:16.904Z,21.06
2022-08-02T08:29:44.462Z,21.10
2022-08-02T08:32:17.543Z,21.14
2022-08-02T08:34:46.453Z,21.23
2022-08-02T08:37:17.016Z,21.39
2022-08-02T08:39:58.180Z,21.51
2022-08-02T08:42:30.876Z,21.57
2022-08-02T08:44:59.381Z,21.56
2022-08-02T08:47:34.463Z,21.40
2022-08-02T08:50:11.709Z,21.58
2022-08-02T08:53:02.598Z,21.71
2022-08-02T08:55:32.222Z,21.74
2022-08-02T08:58:01.107Z,22.00
2022-08-02T09:00:31.895Z,22.00
2022-08-02T09:03:02.485Z,22.12
2022-08-02T09:05:29.371Z,22.02
2022-08-02T09:07:56.253Z,22.14
2022-08-02T09:10:39.361Z,22.15
2022-08-02T09:13:38.664Z,22.22
2022-08-02T09:16:12.976Z,22.27
2022-08-02T09:18:46.648Z,22.36
2022-08-02T09:21:16.641Z,22.41
2022-08-02T09:23:47.414Z,22.33
2022-08-02T09:26:20.631Z,22.40
2022-08-02T09:28:52.763Z,22.51
2022-08-02T09:31:23.294Z,22.55
2022-08-02T09:33:56.312Z,22.55
2022-08-02T09:36:24.207Z,22.58
2022-08-02T09:39:00.103Z,22.48
2022-08-02T09:41:33.685Z,22.49
2022-08-02T09:44:06.177Z,22.59
2022-08-02T09:46:42.810Z,22.68
2022-08-02T09:49:14.058Z,22.65
2022-08-02T09:51:50.743Z,22.72
2022-08-02T09:54:21.910Z,22.95
2022-08-02T09:56:51.186Z,23.11
2022-08-02T09:59:20.088Z,23.38
2022-08-02T10:01:51.343Z,23.57
2022-08-02T10:04:34.315Z,23.75
2022-08-02T10:07:18.765Z,23.74
2022-08-02T10:09:47.650Z,23.92
2022-08-02T10:12:15.516Z,24.04
2022-08-02T10:14:43.858Z,23.96
2022-08-02T10:17:10.801Z,24.01
2022-08-02T10:20:02.213Z,23.98
2022-08-02T10:22:25.901Z,23.95
2022-08-02T10:24:53.884Z,24.28
2022-08-02T10:27:21.640Z,24.18
2022-08-02T10:29:55.086Z,24.17
2022-08-02T10:32:38.029Z,24.12
2022-08-02T10:35:19.641Z,24.15
2022-08-02T10:37:56.838Z,24.14
2022-08-02T10:40:23.887Z,24.16
2022-08-02T10:42:53.457Z,24.28
2022-08-02T10:45:22.766Z,24.32
2022-08-02T10:48:19.534Z,24.48
2022-08-02T10:50:46.422Z,24.50
2022-08-02T10:53:27.377Z,24.83
2022-08-02T10:56:01.145Z,24.91
2022-08-02T10:58:32.421Z,24.95
2022-08-02T11:01:38.285Z,24.90
2022-08-02T11:04:10.452Z,25.04
2022-08-02T11:07:20.454Z,25.04
2022-08-02T11:09:49.701Z,24.88
2022-08-02T11:12:19.853Z,25.00
2022-08-02T11:15:01.066Z,25.04
2022-08-02T11:17:38.283Z,25.37
2022-08-02T11:20:10.992Z,25.98
2022-08-02T11:22:42.915Z,26.69
2022-08-02T11:25:24.937Z,27.96
2022-08-02T11:28:09.622Z,29.84
2022-08-02T11:30:37.294Z,31.97
2022-08-02T11:33:04.935Z,34.12
2022-08-02T11:35:38.126Z,35.73
2022-08-02T11:38:21.230Z,37.33
2022-08-02T11:40:49.495Z,37.68
2022-08-02T11:43:21.943Z,38.08
2022-08-02T11:45:52.278Z,38.81
2022-08-02T11:48:31.940Z,37.96
2022-08-02T11:51:13.300Z,39.16
2022-08-02T11:53:50.402Z,38.80
2022-08-02T11:56:25.752Z,38.54
2022-08-02T11:59:03.686Z,39.64
2022-08-02T12:01:32.291Z,39.94
2022-08-02T12:04:07.163Z,39.87
2022-08-02T12:06:36.713Z,39.49
2022-08-02T12:09:18.283Z,39.91
2022-08-02T12:11:50.871Z,40.35
2022-08-02T12:14:18.223Z,40.63
2022-08-02T12:17:04.483Z,40.49
2022-08-02T12:19:31.400Z,40.39
2022-08-02T12:22:19.754Z,39.40
2022-08-02T12:24:54.156Z,37.76
2022-08-02T12:27:30.975Z,36.38
2022-08-02T12:30:27.510Z,35.26
2022-08-02T12:33:13.050Z,34.86
2022-08-02T12:35:40.217Z,33.22
2022-08-02T12:38:11.854Z,32.86
2022-08-02T12:40:39.110Z,32.48
2022-08-02T12:43:08.732Z,32.65
2022-08-02T12:45:49.022Z,32.50
2022-08-02T12:48:36.660Z,31.73
2022-08-02T12:51:59.048Z,30.98
2022-08-02T12:54:32.616Z,30.59
2022-08-02T12:57:14.741Z,30.85
2022-08-02T12:59:44.452Z,31.05
2022-08-02T13:02:14.432Z,31.12
2022-08-02T13:04:41.950Z,29.98
2022-08-02T13:07:18.222Z,29.90
2022-08-02T13:09:46.741Z,29.49
2022-08-02T13:12:14.013Z,29.85
2022-08-02T13:14:42.626Z,29.93
2022-08-02T13:17:11.569Z,29.93
2022-08-02T13:19:38.839Z,29.66
2022-08-02T13:22:08.608Z,29.47
2022-08-02T13:24:55.271Z,29.14
2022-08-02T13:27:25.833Z,29.01
2022-08-02T13:29:54.583Z,28.84
2022-08-02T13:32:22.238Z,28.72
2022-08-02T13:34:49.113Z,28.63
2022-08-02T13:37:16.363Z,28.73
2022-08-02T13:40:00.170Z,29.21
2022-08-02T13:42:30.280Z,29.08
2022-08-02T13:44:57.101Z,28.83
2022-08-02T13:47:36.445Z,28.88
2022-08-02T13:50:11.227Z,28.89
2022-08-02T13:52:38.107Z,28.64
2022-08-02T13:55:05.461Z,28.70
2022-08-02T13:57:39.606Z,28.64
2022-08-02T14:00:09.457Z,28.62
2022-08-02T14:02:40.190Z,28.96
2022-08-02T14:05:07.787Z,29.23
2022-08-02T14:07:34.606Z,29.07
2022-08-02T14:10:01.410Z,28.90
2022-08-02T14:12:28.245Z,29.22
2022-08-02T14:14:55.065Z,29.40
2022-08-02T14:17:21.868Z,28.94
2022-08-02T14:19:48.735Z,28.84
2022-08-02T14:22:15.583Z,28.84
2022-08-02T14:24:42.905Z,28.74
2022-08-02T14:27:10.410Z,28.67
2022-08-02T14:29:37.258Z,28.72
2022-08-02T14:32:04.349Z,28.65
2022-08-02T14:34:31.844Z,28.71
2022-08-02T14:36:58.651Z,29.11
2022-08-02T14:39:25.476Z,29.18
2022-08-02T14:41:59.987Z,29.23
2022-08-02T14:44:28.968Z,29.33
2022-08-02T14:46:56.164Z,29.27
2022-08-02T14:49:24.513Z,28.94
2022-08-02T14:51:51.947Z,29.11
2022-08-02T14:54:18.829Z,29.24
2022-08-02T14:56:45.765Z,29.01
2022-08-02T14:59:15.100Z,28.93
2022-08-02T15:01:41.973Z,28.82
2022-08-02T15:04:08.923Z,29.01
2022-08-02T15:06:35.753Z,28.92
2022-08-02T15:09:02.582Z,28.99
2022-08-02T15:11:29.426Z,29.27
2022-08-02T15:13:59.084Z,29.13
2022-08-02T15:16:47.398Z,28.87
2022-08-02T15:19:13.872Z,28.77
2022-08-02T15:21:52.491Z,28.71
2022-08-02T15:24:21.637Z,28.75
2022-08-02T15:26:50.190Z,28.58
2022-08-02T15:29:18.577Z,28.69
2022-08-02T15:31:45.590Z,28.76
2022-08-02T15:34:12.674Z,28.61
2022-08-02T15:36:39.739Z,28.47
2022-08-02T15:39:06.626Z,28.82
2022-08-02T15:41:33.536Z,28.83
2022-08-02T15:44:01.892Z,28.90
2022-08-02T15:46:30.778Z,28.93
2022-08-02T15:48:59.915Z,28.87
2022-08-02T15:51:27.253Z,29.00
2022-08-02T15:53:54.156Z,28.93
2022-08-02T15:56:23.910Z,28.88
2022-08-02T15:58:56.095Z,28.75
2022-08-02T16:01:35.220Z,28.94
2022-08-02T16:04:07.212Z,29.04
2022-08-02T16:06:35.508Z,29.12
2022-08-02T16:09:02.962Z,29.24
2022-08-02T16:11:30.140Z,29.20
2022-08-02T16:13:58.989Z,29.23
2022-08-02T16:16:30.753Z,29.15
2022-08-02T16:18:59.394Z,29.04
2022-08-02T16:21:48.202Z,29.17
2022-08-02T16:24:15.076Z,29.06
2022-08-02T16:26:42.128Z,28.88
2022-08-02T16:29:09.544Z,28.93
2022-08-02T16:31:41.642Z,28.97
2022-08-02T16:34:09.423Z,29.20
2022-08-02T16:36:36.647Z,29.11
2022-08-02T16:39:04.664Z,28.95
2022-08-02T16:41:50.266Z,28.82
2022-08-02T16:44:18.435Z,28.78
2022-08-02T16:47:00.988Z,28.94
2022-08-02T16:50:05.061Z,29.16
2022-08-02T16:52:16.792Z,29.14
2022-08-02T16:54:49.902Z,29.28
2022-08-02T16:57:19.744Z,29.35
2022-08-02T16:59:57.847Z,29.27
2022-08-02T17:02:28.648Z,29.42
2022-08-02T17:04:56.754Z,29.41
2022-08-02T17:08:15.971Z,29.27
2022-08-02T17:10:10.893Z,29.10
2022-08-02T17:12:39.363Z,29.00
2022-08-02T17:16:08.148Z,28.98
2022-08-02T17:17:56.464Z,28.92
2022-08-02T17:20:24.496Z,28.88
2022-08-02T17:22:52.412Z,28.77
2022-08-02T17:25:20.492Z,28.74
2022-08-02T17:30:34.620Z,28.51
2022-08-02T17:33:01.459Z,28.57
2022-08-02T17:35:43.264Z,28.60
2022-08-02T17:38:18.133Z,28.61
2022-08-02T17:40:55.108Z,28.51
2022-08-02T17:43:22.036Z,28.38
2022-08-02T17:46:01.024Z,28.37
2022-08-02T17:48:50.027Z,28.34
2022-08-02T17:51:33.065Z,28.34
2022-08-02T17:54:08.390Z,28.31
2022-08-02T17:56:36.988Z,28.33
2022-08-02T17:59:31.146Z,28.21
2022-08-02T18:02:09.213Z,28.16
2022-08-02T18:04:38.762Z,28.13
2022-08-02T18:07:07.397Z,28.06
2022-08-02T18:09:36.921Z,28.02
2022-08-02T18:12:03.917Z,27.97
2022-08-02T18:14:30.777Z,27.74
2022-08-02T18:16:57.652Z,27.74
2022-08-02T18:19:33.086Z,27.61
2022-08-02T18:22:10.501Z,27.57
2022-08-02T18:24:38.162Z,27.45
2022-08-02T18:27:05.040Z,27.45
2022-08-02T18:29:38.600Z,27.35
2022-08-02T18:32:06.395Z,27.25
2022-08-02T18:34:39.155Z,27.10
2022-08-02T18:37:06.862Z,27.06
2022-08-02T18:39:34.974Z,27.04
2022-08-02T18:42:05.455Z,26.94
2022-08-02T18:44:32.273Z,26.79
2022-08-02T18:47:00.478Z,26.79
2022-08-02T18:49:46.803Z,26.71
2022-08-02T18:52:15.585Z,26.63
2022-08-02T18:54:42.670Z,26.52
2022-08-02T18:57:59.688Z,26.42
2022-08-02T18:59:57.518Z,26.30
2022-08-02T19:02:24.935Z,26.23
2022-08-02T19:04:55.005Z,26.21
2022-08-02T19:07:22.559Z,26.18
2022-08-02T19:09:49.672Z,26.11
2022-08-02T19:12:22.575Z,26.04
2022-08-02T19:14:55.648Z,25.96
2022-08-02T19:17:54.026Z,25.82
2022-08-02T19:20:11.170Z,25.80
2022-08-02T19:22:46.663Z,25.70
2022-08-02T19:25:21.104Z,25.70
2022-08-02T19:27:55.011Z,25.68
2022-08-02T19:30:22.287Z,25.54
2022-08-02T19:32:59.756Z,25.42
2022-08-02T19:36:01.489Z,25.39
2022-08-02T19:38:26.423Z,25.38
2022-08-02T19:40:54.337Z,25.29
2022-08-02T19:44:26.417Z,25.22
2022-08-02T19:46:15.650Z,25.33
2022-08-02T19:48:42.985Z,25.21
2022-08-02T19:51:13.044Z,25.18
2022-08-02T19:53:48.331Z,25.16
2022-08-02T19:56:21.224Z,25.07
2022-08-02T19:58:51.539Z,24.99
2022-08-02T20:01:23.784Z,24.93
2022-08-02T20:03:55.260Z,24.68
2022-08-02T20:06:28.556Z,24.75
2022-08-02T20:08:59.316Z,24.72
2022-08-02T20:11:35.064Z,24.55
2022-08-02T20:14:04.665Z,24.46
2022-08-02T20:16:33.331Z,24.45
2022-08-02T20:19:02.269Z,24.40
2022-08-02T20:21:35.323Z,24.34
2022-08-02T20:24:09.118Z,24.35
2022-08-02T20:26:38.183Z,24.24
2022-08-02T20:29:05.547Z,24.28
2022-08-02T20:31:32.540Z,23.98
2022-08-02T20:34:00.369Z,24.08
2022-08-02T20:36:28.369Z,23.93
2022-08-02T20:38:55.551Z,23.97
2022-08-02T20:41:37.089Z,23.93
2022-08-02T20:44:16.289Z,23.88
2022-08-02T20:50:07.717Z,23.91
2022-08-02T20:52:37.284Z,23.90
2022-08-02T20:55:04.333Z,23.72
2022-08-02T21:00:18.182Z,23.74
2022-08-02T21:02:47.558Z,23.69
2022-08-02T21:05:15.444Z,23.62
2022-08-02T21:07:47.768Z,23.62
2022-08-02T21:10:14.863Z,23.54
2022-08-02T21:12:41.692Z,23.48
2022-08-02T21:15:12.536Z,23.44
2022-08-02T21:17:46.662Z,23.41
2022-08-02T21:20:19.191Z,23.34
2022-08-02T21:22:55.323Z,23.32
2022-08-02T21:25:24.019Z,23.32
2022-08-02T21:28:09.332Z,23.20
2022-08-02T21:30:44.489Z,23.19
2022-08-02T21:33:18.107Z,23.16
2022-08-02T21:35:52.166Z,23.14
2022-08-02T21:38:35.610Z,23.08
2022-08-02T21:41:06.943Z,23.02
2022-08-02T21:43:40.270Z,22.95
2022-08-02T21:46:10.649Z,22.90
2022-08-02T21:48:41.698Z,22.81
2022-08-02T21:51:08.528Z,22.83
2022-08-02T21:53:43.166Z,22.84
2022-08-02T21:56:10.798Z,22.83
2022-08-02T21:58:37.731Z,22.77
2022-08-02T22:01:05.102Z,22.69
2022-08-02T22:03:32.581Z,22.77
2022-08-02T22:05:59.857Z,22.71
2022-08-02T22:08:26.695Z,22.60
2022-08-02T22:11:03.284Z,22.60
2022-08-02T22:13:38.845Z,22.61
2022-08-02T22:16:14.617Z,22.54
2022-08-02T22:18:52.472Z,22.53
2022-08-02T22:21:20.614Z,22.48
2022-08-02T22:23:51.224Z,22.41
2022-08-02T22:26:19.106Z,22.35
2022-08-02T22:28:51.111Z,22.36
2022-08-02T22:31:40.693Z,22.38
2022-08-02T22:34:11.631Z,22.27
2022-08-02T22:36:53.432Z,22.26
2022-08-02T22:39:20.316Z,22.31
2022-08-02T22:42:06.268Z,22.22
2022-08-02T22:44:35.227Z,22.02
2022-08-02T22:47:06.992Z,22.12
2022-08-02T22:49:52.867Z,22.13
2022-08-02T22:52:21.806Z,22.03
2022-08-02T22:54:48.825Z,22.08
2022-08-02T22:57:18.061Z,21.91
2022-08-02T22:58:38.444Z,28.66
2022-08-02T22:59:06.416Z,23.88
2022-08-02T22:59:06.519Z,23.77
2022-08-02T22:59:58.837Z,22.01
2022-08-02T23:02:26.283Z,22.00
2022-08-02T23:04:53.171Z,22.04
2022-08-02T23:07:19.998Z,21.98
2022-08-02T23:09:46.809Z,21.91
2022-08-02T23:12:18.974Z,21.95
2022-08-02T23:14:47.389Z,21.84
2022-08-02T23:17:32.976Z,21.87
2022-08-02T23:19:59.807Z,21.83
2022-08-02T23:22:30.008Z,21.81
2022-08-02T23:25:00.192Z,21.82
2022-08-02T23:27:27.462Z,21.80
2022-08-02T23:29:54.386Z,21.61
2022-08-02T23:32:22.828Z,21.61
2022-08-02T23:34:52.679Z,21.62
2022-08-02T23:37:19.508Z,21.60
2022-08-02T23:39:46.645Z,21.58
2022-08-02T23:42:13.525Z,21.55
2022-08-02T23:44:40.562Z,21.41
2022-08-02T23:47:07.573Z,21.47
2022-08-02T23:49:34.491Z,21.55
2022-08-02T23:52:02.103Z,21.44
2022-08-02T23:54:29.151Z,21.38
2022-08-02T23:56:56.067Z,21.48
2022-08-02T23:59:23.177Z,21.33
